Impacts TAF Board
For situational awareness. Not to be used for flight planning purposes.
IDs:

KATL - Atlanta/Hartsfield-J, GA, US

Issued at 0807 UTC 15 Dec 2018
Updated at 1110 UTC 15 Dec 2018
Potential Impact None Slight Moderate High
Time<<16/12Z 16/13Z 16/14Z 16/15Z 16/16Z 16/17Z 16/18Z 16/19Z 16/20Z 16/21Z 16/22Z 16/23Z 17/00Z
Type
VIS
CIG
Cover
FltCat
WX
WDir
WSpd
WGst
Raw TAF
KATL 150807Z 1508/1612 11004KT 2SM -DZ BR VCSH OVC003
  TEMPO 1508/1512 1/2SM -DZ FG OVC002
  FM151400 20006KT P6SM OVC015
  FM151600 22006KT P6SM BKN025
  FM160300 27005KT 4SM BR BKN006


METAR Board
Radar Display
Forecast Discussion
For situational awareness. Not to be used for flight planning purposes.